Arcata, California
Current Conditions -  °F | °C
As of 11:53 PM on Friday 24 Oct 2014 (Local Time) from KACV Reporting Station
Clear Clear  
Wind Chill: 65°   Ceiling: Unl
Heat Index: 65°   Visibility: 10mi
Dew Point: 48°   Wind: 18mph
Humidity: 54%   Direction: 140°SE
Pressure: 29.63"   Gusts: 24mph
Location:  40.87°N, 124.08°W
Report Text: KACV 250653Z AUTO 14016G21KT 10SM CLR 18/09 A2963 RMK AO2 SLP038 T01830089
Loading
Personal Weather Stations






























Interactive Weather Map
Tropical Storm Tracking
New forecast layout! Learn more

10-Day Weather Forecast

Advertisements
Track Severe Weather on mobile